Time;durP1;ratioP1;P1;durP2;ratioP2;P2;SDS_P1;SDS_P2;PMS_P1;PMS_P2;Temp;Humidity;BMP_temperature;BMP_pressure;BME280_temperature;BME280_humidity;BME280_pressure;Samples;Min_cycle;Max_cycle;Signal;HPM_P1;HPM_P2
2022/10/23 00:00:22;;;;;;;14.20;9.20;;;;;;;9.81;100.00;99871.32;100635;1333;22995;-33
2022/10/23 00:02:52;;;;;;;25.00;13.20;;;;;;;9.79;100.00;99874.36;100495;1341;24364;-33
2022/10/23 00:05:19;;;;;;;23.30;12.70;;;;;;;9.77;100.00;99874.88;100637;1335;22793;-36
2022/10/23 00:07:44;;;;;;;7.80;6.70;;;;;;;9.70;100.00;99879.77;100672;1333;22717;-33
2022/10/23 00:10:10;;;;;;;28.20;10.70;;;;;;;9.67;100.00;99872.65;100695;1340;23231;-35
2022/10/23 00:12:35;;;;;;;27.10;14.80;;;;;;;9.59;100.00;99867.02;100626;1341;24117;-35
2022/10/23 00:15:01;;;;;;;26.20;15.30;;;;;;;9.51;100.00;99871.33;100655;1340;25250;-35
2022/10/23 00:17:26;;;;;;;18.10;9.90;;;;;;;9.49;100.00;99872.73;100461;1333;26566;-32
2022/10/23 00:19:52;;;;;;;20.50;12.50;;;;;;;9.44;100.00;99872.06;100673;1340;22624;-34
2022/10/23 00:22:17;;;;;;;23.10;13.20;;;;;;;9.40;100.00;99871.89;100606;1341;24865;-35
2022/10/23 00:24:43;;;;;;;32.70;16.00;;;;;;;9.40;100.00;99874.00;100680;1340;24344;-33
2022/10/23 00:27:09;;;;;;;54.30;20.30;;;;;;;9.37;100.00;99876.48;100631;1339;24485;-36
2022/10/23 00:29:36;;;;;;;150.10;37.10;;;;;;;9.30;100.00;99878.48;100701;1340;23089;-34
2022/10/23 00:32:01;;;;;;;201.60;47.40;;;;;;;9.28;100.00;99884.08;100647;1341;22751;-34
2022/10/23 00:34:27;;;;;;;105.30;28.50;;;;;;;9.25;100.00;99886.55;100637;1341;22741;-34
2022/10/23 00:36:52;;;;;;;70.50;19.00;;;;;;;9.22;100.00;99883.02;100601;1341;22741;-36
2022/10/23 00:39:18;;;;;;;43.00;18.80;;;;;;;9.16;100.00;99882.31;100581;1340;22542;-36
2022/10/23 00:41:44;;;;;;;21.80;13.50;;;;;;;9.11;100.00;99877.81;100651;1340;22715;-36
2022/10/23 00:44:29;;;;;;;21.40;12.50;;;;;;;9.10;100.00;99885.50;100642;1333;24337;-34
2022/10/23 00:46:55;;;;;;;17.30;11.30;;;;;;;9.09;100.00;99880.45;100642;1341;22774;-36
2022/10/23 00:49:21;;;;;;;20.40;12.20;;;;;;;8.99;100.00;99877.31;100696;1334;22932;-37
2022/10/23 00:51:49;;;;;;;20.70;10.50;;;;;;;8.94;100.00;99878.60;100660;1327;24493;-37
2022/10/23 00:54:16;;;;;;;21.60;11.60;;;;;;;8.88;100.00;99886.32;100700;1334;24376;-34
2022/10/23 00:56:42;;;;;;;21.50;10.30;;;;;;;8.88;100.00;99893.45;100600;1337;24372;-35
2022/10/23 00:59:08;;;;;;;18.70;11.50;;;;;;;8.86;100.00;99893.88;100654;1334;23055;-37
2022/10/23 01:01:33;;;;;;;8.60;5.20;;;;;;;8.84;100.00;99889.13;100662;1335;24775;-34
2022/10/23 01:04:00;;;;;;;24.70;14.60;;;;;;;8.80;100.00;99888.83;100660;1341;23118;-34
2022/10/23 01:06:37;;;;;;;19.50;11.70;;;;;;;8.75;100.00;99887.65;100657;1341;24501;-34
2022/10/23 01:09:06;;;;;;;22.70;14.90;;;;;;;8.77;100.00;99888.81;100651;1341;22863;-32
2022/10/23 01:11:36;;;;;;;11.60;7.80;;;;;;;8.71;100.00;99886.52;100727;1339;22748;-33
2022/10/23 01:14:08;;;;;;;16.50;10.80;;;;;;;8.64;100.00;99881.52;100703;1341;25741;-35
2022/10/23 01:16:37;;;;;;;21.80;10.30;;;;;;;8.62;100.00;99880.59;100651;1341;22641;-32
2022/10/23 01:19:10;;;;;;;20.80;11.60;;;;;;;8.54;100.00;99878.11;100718;1341;24568;-37
2022/10/23 01:21:41;;;;;;;23.60;13.80;;;;;;;8.50;100.00;99874.97;100713;1341;23920;-37
2022/10/23 01:24:11;;;;;;;16.80;11.60;;;;;;;8.43;100.00;99873.23;100650;1339;24449;-34
2022/10/23 01:26:44;;;;;;;24.60;13.60;;;;;;;8.40;100.00;99875.99;100645;1333;23097;-33
2022/10/23 01:29:19;;;;;;;19.60;12.40;;;;;;;8.44;100.00;99873.81;100680;1333;24337;-34
2022/10/23 01:31:52;;;;;;;17.60;12.00;;;;;;;8.44;100.00;99875.06;100649;1341;24350;-37
2022/10/23 01:34:21;;;;;;;37.30;16.10;;;;;;;8.44;100.00;99871.48;100638;1341;25277;-36
2022/10/23 01:36:48;;;;;;;17.90;10.40;;;;;;;8.35;100.00;99871.44;100515;1341;24590;-34
2022/10/23 01:39:16;;;;;;;21.40;10.90;;;;;;;8.23;100.00;99868.64;100687;1341;25592;-33
2022/10/23 01:41:47;;;;;;;29.60;14.20;;;;;;;8.23;100.00;99872.79;100519;1341;22492;-34
2022/10/23 01:44:16;;;;;;;20.10;10.70;;;;;;;8.16;100.00;99872.06;100638;1341;22503;-37
2022/10/23 01:46:42;;;;;;;29.60;12.20;;;;;;;8.13;100.00;99874.11;100665;1341;24417;-36
2022/10/23 01:49:10;;;;;;;27.90;15.50;;;;;;;8.08;100.00;99871.48;100609;1335;23125;-36
2022/10/23 01:51:35;;;;;;;31.70;16.10;;;;;;;8.11;100.00;99874.74;100633;1334;22761;-34
2022/10/23 01:54:01;;;;;;;25.50;15.10;;;;;;;8.09;100.00;99882.44;100642;1334;22774;-32
2022/10/23 01:56:31;;;;;;;31.20;15.50;;;;;;;8.07;100.00;99880.17;100747;1340;22498;-37
2022/10/23 01:58:57;;;;;;;27.00;14.70;;;;;;;8.05;100.00;99889.00;100671;1333;22889;-37
2022/10/23 02:01:24;;;;;;;26.40;14.20;;;;;;;8.03;100.00;99894.26;100659;1340;23067;-37
2022/10/23 02:03:50;;;;;;;33.70;14.70;;;;;;;7.97;100.00;99895.29;100645;1334;22894;-34
2022/10/23 02:06:15;;;;;;;24.90;12.40;;;;;;;7.91;100.00;99899.90;100673;1341;23348;-31
2022/10/23 02:08:41;;;;;;;25.80;14.50;;;;;;;7.91;100.00;99905.48;100394;1342;23235;-34
2022/10/23 02:11:10;;;;;;;27.70;13.50;;;;;;;7.98;100.00;99902.61;100662;1333;24295;-33
2022/10/23 02:13:40;;;;;;;30.30;14.80;;;;;;;8.08;100.00;99904.91;100602;1341;24372;-33
2022/10/23 02:16:11;;;;;;;26.40;14.90;;;;;;;8.03;100.00;99907.21;100691;1341;23126;-33
2022/10/23 02:18:44;;;;;;;27.40;14.50;;;;;;;7.96;100.00;99908.99;100442;1341;24974;-33
2022/10/23 02:21:12;;;;;;;26.80;15.60;;;;;;;7.98;100.00;99914.58;100683;1341;22502;-33
2022/10/23 02:23:42;;;;;;;28.80;12.80;;;;;;;8.04;100.00;99922.23;100702;1335;22993;-34
2022/10/23 02:26:14;;;;;;;31.30;15.20;;;;;;;8.17;100.00;99929.55;100552;1333;22764;-36
2022/10/23 02:28:43;;;;;;;27.00;13.20;;;;;;;8.18;100.00;99929.86;100664;1341;23180;-34
2022/10/23 02:31:10;;;;;;;33.40;10.40;;;;;;;8.24;100.00;99929.18;100671;1338;22520;-36
2022/10/23 02:33:35;;;;;;;18.30;11.40;;;;;;;8.33;100.00;99930.69;100636;1333;23102;-33
2022/10/23 02:36:01;;;;;;;28.40;10.90;;;;;;;8.41;100.00;99935.17;100671;1339;23057;-36
2022/10/23 02:38:30;;;;;;;12.00;7.70;;;;;;;8.50;100.00;99937.05;100674;1341;22888;-34
2022/10/23 02:41:00;;;;;;;28.70;14.90;;;;;;;8.57;100.00;99936.06;100634;1339;25948;-33
2022/10/23 02:43:29;;;;;;;18.70;11.10;;;;;;;8.65;100.00;99936.65;100674;1341;22897;-34
2022/10/23 02:46:03;;;;;;;21.40;11.40;;;;;;;8.70;100.00;99934.63;100510;1336;22753;-37
2022/10/23 02:48:31;;;;;;;;;;;;;;;8.72;100.00;99930.91;100530;1341;25390;-37
2022/10/23 02:51:04;;;;;;;20.10;10.50;;;;;;;8.75;100.00;99934.45;100706;1341;22761;-34
2022/10/23 02:53:35;;;;;;;20.40;11.40;;;;;;;8.82;100.00;99936.27;100653;1334;22536;-34
2022/10/23 02:56:07;;;;;;;23.40;10.80;;;;;;;8.91;100.00;99936.58;100640;1342;22520;-35
2022/10/23 02:58:40;;;;;;;24.30;10.90;;;;;;;8.94;100.00;99940.19;100768;1341;22578;-34
2022/10/23 03:01:08;;;;;;;18.80;10.90;;;;;;;8.98;100.00;99946.38;100696;1341;22493;-34
2022/10/23 03:03:36;;;;;;;17.30;11.70;;;;;;;8.98;100.00;99949.30;100665;1333;23131;-32
2022/10/23 03:06:02;;;;;;;12.80;8.50;;;;;;;8.98;100.00;99949.85;100608;1341;23362;-39
2022/10/23 03:08:28;;;;;;;18.30;11.00;;;;;;;9.01;100.00;99951.55;100634;1340;23112;-32
2022/10/23 03:10:53;;;;;;;19.90;9.60;;;;;;;9.07;100.00;99956.78;100638;1340;24354;-34
2022/10/23 03:13:19;;;;;;;22.00;13.40;;;;;;;9.08;100.00;99955.70;100471;1341;22762;-32
2022/10/23 03:15:45;;;;;;;19.00;8.80;;;;;;;9.07;100.00;99948.00;100545;1341;22902;-35
2022/10/23 03:18:11;;;;;;;18.10;10.20;;;;;;;9.12;100.00;99946.48;100661;1324;22713;-33
2022/10/23 03:20:36;;;;;;;23.90;13.30;;;;;;;9.15;100.00;99941.55;100721;1334;23106;-35
2022/10/23 03:23:02;;;;;;;15.50;8.00;;;;;;;9.18;100.00;99937.94;100534;1341;23090;-36
2022/10/23 03:25:27;;;;;;;18.10;9.70;;;;;;;9.18;100.00;99936.21;100630;1334;22715;-34
2022/10/23 03:27:53;;;;;;;10.50;7.50;;;;;;;9.19;100.00;99936.96;100665;1342;25641;-35
2022/10/23 03:30:19;;;;;;;18.00;11.50;;;;;;;9.21;100.00;99933.21;100505;1341;23088;-35
2022/10/23 03:32:44;;;;;;;14.20;8.10;;;;;;;9.22;100.00;99934.02;100670;1333;22730;-34
2022/10/23 03:35:10;;;;;;;20.50;11.80;;;;;;;9.25;100.00;99927.37;100658;1340;22864;-36
2022/10/23 03:37:35;;;;;;;15.30;8.00;;;;;;;9.23;100.00;99927.17;100604;1332;22889;-36
2022/10/23 03:40:01;;;;;;;18.90;10.60;;;;;;;9.29;100.00;99920.27;100596;1332;22892;-36
2022/10/23 03:42:27;;;;;;;18.70;9.70;;;;;;;9.26;100.00;99921.27;100578;1340;22533;-34
2022/10/23 03:44:54;;;;;;;24.20;13.40;;;;;;;9.24;100.00;99920.10;100689;1330;22658;-36
2022/10/23 03:47:19;;;;;;;41.10;16.80;;;;;;;9.25;100.00;99916.24;100495;1341;22741;-36
2022/10/23 03:49:49;;;;;;;9.20;5.90;;;;;;;9.33;100.00;99919.27;100670;1341;22716;-36
2022/10/23 03:52:15;;;;;;;13.80;7.40;;;;;;;9.39;100.00;99915.89;100414;1341;23054;-36
2022/10/23 03:54:40;;;;;;;19.90;11.50;;;;;;;9.37;100.00;99908.46;100638;1341;23361;-36
2022/10/23 03:57:06;;;;;;;17.60;9.00;;;;;;;9.39;100.00;99904.20;100676;1340;22875;-34
2022/10/23 03:59:31;;;;;;;21.40;11.50;;;;;;;9.47;100.00;99900.17;100630;1340;22891;-34
2022/10/23 04:01:57;;;;;;;10.10;5.40;;;;;;;9.48;100.00;99897.35;100711;1342;22497;-36
2022/10/23 04:04:23;;;;;;;18.50;9.90;;;;;;;9.45;100.00;99896.78;100685;1333;22893;-35
2022/10/23 04:06:48;;;;;;;15.70;11.60;;;;;;;9.45;100.00;99899.38;100612;1333;23226;-36
2022/10/23 04:09:14;;;;;;;18.90;9.10;;;;;;;9.50;100.00;99896.73;100686;1332;23189;-33
2022/10/23 04:11:40;;;;;;;14.50;8.80;;;;;;;9.57;100.00;99889.10;100641;1339;24449;-33
2022/10/23 04:14:05;;;;;;;7.00;3.60;;;;;;;9.67;100.00;99884.04;100617;1345;23112;-36
2022/10/23 04:16:31;;;;;;;17.60;9.00;;;;;;;9.68;100.00;99876.80;100737;1337;22578;-33
2022/10/23 04:18:56;;;;;;;10.90;4.70;;;;;;;9.68;100.00;99874.85;100633;1340;24381;-36
2022/10/23 04:21:22;;;;;;;9.70;6.00;;;;;;;9.71;100.00;99873.26;100624;1342;23115;-36
2022/10/23 04:23:47;;;;;;;15.20;7.60;;;;;;;9.72;100.00;99866.46;100661;1342;24288;-33
2022/10/23 04:26:13;;;;;;;21.70;10.80;;;;;;;9.72;100.00;99859.87;100662;1342;22748;-32
2022/10/23 04:28:38;;;;;;;16.00;8.70;;;;;;;9.70;100.00;99850.79;100579;1341;22515;-33
2022/10/23 04:31:04;;;;;;;15.70;9.10;;;;;;;9.69;100.00;99857.38;100537;1343;23228;-35
2022/10/23 04:33:29;;;;;;;22.30;11.10;;;;;;;9.77;100.00;99855.50;100573;1341;23106;-33
2022/10/23 04:35:55;;;;;;;4.60;4.00;;;;;;;9.80;100.00;99854.07;100652;1340;23101;-33
2022/10/23 04:38:20;;;;;;;10.40;6.10;;;;;;;9.83;100.00;99853.27;100702;1345;22715;-36
2022/10/23 04:40:46;;;;;;;8.00;5.70;;;;;;;9.89;100.00;99849.70;100502;1341;23424;-33
2022/10/23 04:43:12;;;;;;;19.10;10.80;;;;;;;9.93;100.00;99841.22;100686;1340;22760;-36
2022/10/23 04:45:38;;;;;;;13.50;8.70;;;;;;;9.92;100.00;99837.88;100470;1341;22894;-33
2022/10/23 04:48:04;;;;;;;12.10;7.70;;;;;;;9.95;100.00;99829.83;100642;1325;22888;-34
2022/10/23 04:50:30;;;;;;;15.70;8.90;;;;;;;9.95;100.00;99823.59;100717;1335;24488;-36
2022/10/23 04:52:56;;;;;;;17.00;9.70;;;;;;;10.00;100.00;99818.01;100657;1342;22896;-36
2022/10/23 04:55:22;;;;;;;9.20;7.70;;;;;;;9.96;100.00;99819.12;100737;1340;24856;-36
2022/10/23 04:57:47;;;;;;;20.50;10.90;;;;;;;9.95;100.00;99818.86;100442;1345;24841;-35
2022/10/23 05:00:14;;;;;;;21.70;9.40;;;;;;;9.90;100.00;99818.60;100657;1345;24296;-37
2022/10/23 05:02:40;;;;;;;19.80;7.50;;;;;;;9.86;100.00;99813.58;100671;1345;24925;-37
2022/10/23 05:05:06;;;;;;;13.00;7.80;;;;;;;9.84;100.00;99814.58;100721;1339;22904;-37
2022/10/23 05:07:32;;;;;;;15.50;9.60;;;;;;;9.86;100.00;99813.58;100715;1344;22717;-37
2022/10/23 05:09:57;;;;;;;16.70;8.60;;;;;;;9.91;100.00;99809.78;100745;1339;23092;-34
2022/10/23 05:12:25;;;;;;;17.40;11.20;;;;;;;9.86;100.00;99808.47;101106;1317;22509;-32
2022/10/23 05:14:51;;;;;;;15.50;9.50;;;;;;;9.76;100.00;99813.05;101131;1335;22504;-32
2022/10/23 05:17:20;;;;;;;18.30;10.40;;;;;;;9.69;100.00;99823.45;101174;1338;24353;-34
2022/10/23 05:19:50;;;;;;;21.90;11.20;;;;;;;9.63;100.00;99826.91;101273;1330;25590;-34
2022/10/23 05:22:16;;;;;;;8.90;4.50;;;;;;;9.58;100.00;99835.94;101295;1326;22955;-36
2022/10/23 05:24:41;;;;;;;21.80;11.40;;;;;;;9.59;100.00;99840.13;101180;1333;22757;-36
2022/10/23 05:27:07;;;;;;;19.80;10.10;;;;;;;9.55;100.00;99842.53;101186;1334;24852;-37
2022/10/23 05:29:33;;;;;;;17.90;10.30;;;;;;;9.55;100.00;99847.86;101205;1336;24860;-34
2022/10/23 05:32:00;;;;;;;21.70;10.40;;;;;;;9.54;100.00;99856.78;101079;1328;26579;-34
2022/10/23 05:34:26;;;;;;;17.90;9.40;;;;;;;9.55;100.00;99857.17;101221;1337;23230;-37
2022/10/23 05:36:52;;;;;;;16.90;10.50;;;;;;;9.55;100.00;99859.31;101226;1330;24297;-36
2022/10/23 05:39:18;;;;;;;16.50;10.10;;;;;;;9.57;100.00;99867.68;100975;1337;22738;-37
2022/10/23 05:41:43;;;;;;;15.60;8.80;;;;;;;9.58;100.00;99867.91;101231;1336;22884;-37
2022/10/23 05:44:09;;;;;;;17.60;10.00;;;;;;;9.59;100.00;99872.34;101119;1317;22828;-36
2022/10/23 05:46:40;;;;;;;16.20;9.60;;;;;;;9.60;100.00;99877.42;101062;1330;22742;-37
2022/10/23 05:49:05;;;;;;;22.70;11.00;;;;;;;9.63;100.00;99880.30;101245;1338;22502;-33
2022/10/23 05:51:31;;;;;;;19.50;10.90;;;;;;;9.63;100.00;99886.55;101156;1331;23116;-33
2022/10/23 05:53:56;;;;;;;16.40;9.10;;;;;;;9.64;100.00;99893.30;101212;1328;23048;-36
2022/10/23 05:56:22;;;;;;;13.70;9.00;;;;;;;9.64;100.00;99894.26;101213;1335;23108;-32
2022/10/23 05:58:47;;;;;;;16.90;8.90;;;;;;;9.67;100.00;99897.70;101233;1326;22519;-33
2022/10/23 06:01:13;;;;;;;20.30;10.30;;;;;;;9.69;100.00;99903.88;101233;1336;23101;-33
2022/10/23 06:03:39;;;;;;;9.50;6.90;;;;;;;9.70;100.00;99905.20;101137;1338;22743;-33
2022/10/23 06:06:05;;;;;;;17.60;9.40;;;;;;;9.65;100.00;99910.91;101060;1319;24352;-36
2022/10/23 06:08:31;;;;;;;14.10;8.10;;;;;;;9.66;100.00;99909.20;101174;1334;23061;-33
2022/10/23 06:10:57;;;;;;;18.60;12.40;;;;;;;9.67;100.00;99910.00;101248;1330;22495;-33
2022/10/23 06:13:22;;;;;;;17.40;9.50;;;;;;;9.73;100.00;99908.82;101281;1332;22738;-34
2022/10/23 06:15:48;;;;;;;17.90;10.40;;;;;;;9.70;100.00;99916.05;101165;1334;22709;-36
2022/10/23 06:18:13;;;;;;;20.70;12.60;;;;;;;9.68;100.00;99912.33;101140;1338;22884;-34
2022/10/23 06:20:39;;;;;;;12.70;6.90;;;;;;;9.67;100.00;99910.23;101169;1325;23213;-34
2022/10/23 06:23:05;;;;;;;17.00;8.60;;;;;;;9.64;100.00;99914.64;101129;1336;24273;-33
2022/10/23 06:25:30;;;;;;;19.60;9.70;;;;;;;9.64;100.00;99919.44;101117;1330;24352;-36
2022/10/23 06:27:56;;;;;;;18.50;10.50;;;;;;;9.72;100.00;99918.38;101213;1336;22754;-36
2022/10/23 06:30:22;;;;;;;13.10;8.80;;;;;;;9.66;100.00;99918.01;101184;1330;22879;-36
2022/10/23 06:32:47;;;;;;;22.70;12.70;;;;;;;9.65;100.00;99920.80;101154;1338;22917;-36
2022/10/23 06:35:13;;;;;;;11.90;8.50;;;;;;;9.68;100.00;99918.70;101065;1335;22738;-36
2022/10/23 06:37:39;;;;;;;15.30;9.80;;;;;;;9.69;100.00;99917.65;101204;1336;22495;-36
2022/10/23 06:40:06;;;;;;;26.50;14.60;;;;;;;9.75;100.00;99926.90;101243;1327;22993;-36
2022/10/23 06:42:32;;;;;;;15.20;9.60;;;;;;;9.85;100.00;99931.39;101269;1330;23067;-38
2022/10/23 06:44:57;;;;;;;16.70;10.80;;;;;;;9.93;100.00;99927.55;101193;1330;24337;-36
2022/10/23 06:47:23;;;;;;;23.90;12.60;;;;;;;10.00;100.00;99923.13;101165;1322;24379;-34
2022/10/23 06:49:49;;;;;;;23.90;11.60;;;;;;;10.05;100.00;99916.81;101140;1332;24337;-36
2022/10/23 06:52:14;;;;;;;19.50;12.00;;;;;;;10.11;100.00;99913.48;101156;1333;23115;-34
2022/10/23 06:54:40;;;;;;;17.80;12.40;;;;;;;10.12;100.00;99910.61;101068;1338;24523;-36
2022/10/23 06:57:05;;;;;;;23.30;13.20;;;;;;;10.24;100.00;99912.02;101105;1332;24260;-37
2022/10/23 06:59:30;;;;;;;23.30;11.10;;;;;;;10.24;100.00;99912.63;101090;1326;24367;-34
2022/10/23 07:01:56;;;;;;;22.50;11.10;;;;;;;10.22;100.00;99918.89;101229;1332;23224;-37
2022/10/23 07:04:22;;;;;;;17.70;10.40;;;;;;;10.25;100.00;99916.78;100922;1334;23198;-35
2022/10/23 07:06:47;;;;;;;15.00;10.50;;;;;;;10.28;100.00;99912.70;101317;1332;22490;-33
2022/10/23 07:09:13;;;;;;;15.50;9.20;;;;;;;10.31;100.00;99909.47;101164;1325;22833;-33
2022/10/23 07:11:38;;;;;;;17.60;10.50;;;;;;;10.27;100.00;99907.42;101174;1332;22511;-33
2022/10/23 07:14:04;;;;;;;14.50;10.20;;;;;;;10.30;100.00;99907.44;101155;1331;26473;-33
2022/10/23 07:16:30;;;;;;;12.10;8.00;;;;;;;10.31;100.00;99909.88;101224;1325;23058;-34
2022/10/23 07:18:58;;;;;;;15.20;11.20;;;;;;;10.34;100.00;99918.84;101186;1324;22886;-33
2022/10/23 07:21:25;;;;;;;23.90;13.80;;;;;;;10.44;100.00;99925.09;101183;1332;24275;-34
2022/10/23 07:23:50;;;;;;;25.60;12.10;;;;;;;10.57;100.00;99922.80;101005;1326;337761;-33
2022/10/23 07:26:16;;;;;;;15.90;11.20;;;;;;;10.68;100.00;99920.23;101165;1332;22742;-33
2022/10/23 07:28:43;;;;;;;15.60;10.70;;;;;;;10.82;100.00;99923.45;101205;1331;22897;-33
2022/10/23 07:31:09;;;;;;;15.40;9.20;;;;;;;10.98;100.00;99925.54;101281;1330;23171;-36
2022/10/23 07:33:35;;;;;;;18.50;11.10;;;;;;;11.10;100.00;99924.20;101246;1332;24296;-36
2022/10/23 07:36:04;;;;;;;24.20;10.60;;;;;;;11.13;100.00;99921.14;101207;1332;22744;-34
2022/10/23 07:38:30;;;;;;;11.10;7.90;;;;;;;11.18;100.00;99917.63;101171;1332;22787;-36
2022/10/23 07:40:57;;;;;;;11.90;8.50;;;;;;;11.19;100.00;99914.36;101126;1332;23094;-36
2022/10/23 07:43:24;;;;;;;14.80;8.40;;;;;;;11.28;100.00;99902.25;101207;1329;23108;-36
2022/10/23 07:45:49;;;;;;;12.90;8.60;;;;;;;11.19;100.00;99890.65;101191;1324;24222;-36
2022/10/23 07:48:15;;;;;;;12.10;9.40;;;;;;;11.22;100.00;99889.29;101158;1328;23239;-34
2022/10/23 07:50:41;;;;;;;10.00;7.90;;;;;;;11.34;100.00;99888.42;101235;1332;24796;-38
2022/10/23 07:53:13;;;;;;;10.60;6.50;;;;;;;11.42;100.00;99869.11;100857;1334;22867;-35
2022/10/23 07:55:39;;;;;;;14.20;7.60;;;;;;;11.46;100.00;99857.56;101256;1330;22696;-34
2022/10/23 07:58:04;;;;;;;19.40;9.80;;;;;;;11.55;100.00;99858.19;101200;1325;24397;-37
2022/10/23 08:00:30;;;;;;;11.60;9.00;;;;;;;11.63;100.00;99856.21;101171;1326;23097;-34
2022/10/23 08:02:56;;;;;;;12.80;9.00;;;;;;;11.74;100.00;99861.03;101066;1333;24608;-34
2022/10/23 08:05:21;;;;;;;17.80;9.10;;;;;;;11.84;100.00;99860.27;101193;1324;24395;-35
2022/10/23 08:07:47;;;;;;;11.60;7.90;;;;;;;12.00;100.00;99853.21;100909;1332;22748;-35
2022/10/23 08:10:13;;;;;;;12.80;10.50;;;;;;;12.01;100.00;99848.29;101146;1325;24304;-37
2022/10/23 08:12:39;;;;;;;14.30;7.70;;;;;;;12.18;100.00;99837.29;101191;1316;24414;-35
2022/10/23 08:15:05;;;;;;;8.20;7.10;;;;;;;12.21;100.00;99813.64;101244;1327;22755;-34
2022/10/23 08:17:31;;;;;;;9.60;7.10;;;;;;;12.20;100.00;99810.03;101182;1332;23056;-38
2022/10/23 08:19:56;;;;;;;14.30;7.90;;;;;;;12.23;100.00;99815.39;101161;1332;22878;-35
2022/10/23 08:22:22;;;;;;;9.60;7.30;;;;;;;12.39;100.00;99812.77;101198;1316;22753;-35
2022/10/23 08:24:47;;;;;;;8.30;4.70;;;;;;;12.48;100.00;99809.76;101155;1324;22731;-36
2022/10/23 08:27:13;;;;;;;8.30;6.10;;;;;;;12.59;100.00;99784.64;101206;1332;22511;-34
2022/10/23 08:29:38;;;;;;;10.50;7.20;;;;;;;12.61;100.00;99779.48;101223;1330;25403;-36
2022/10/23 08:32:04;;;;;;;8.10;6.60;;;;;;;12.66;100.00;99780.45;101217;1332;23220;-34
2022/10/23 08:34:30;;;;;;;13.10;5.20;;;;;;;12.74;100.00;99775.99;101068;1332;23093;-33
2022/10/23 08:36:56;;;;;;;8.10;6.80;;;;;;;12.82;100.00;99775.46;101108;1330;22487;-38
2022/10/23 08:39:21;;;;;;;8.90;6.90;;;;;;;13.00;100.00;99776.04;101167;1332;23195;-36
2022/10/23 08:41:49;;;;;;;7.80;5.30;;;;;;;13.08;100.00;99778.69;101262;1332;23033;-36
2022/10/23 08:44:22;;;;;;;8.80;6.40;;;;;;;13.20;100.00;99781.42;101170;1330;23270;-37
2022/10/23 08:46:54;;;;;;;8.60;5.50;;;;;;;13.32;100.00;99779.31;101213;1332;25310;-35
2022/10/23 08:49:25;;;;;;;12.80;7.90;;;;;;;13.54;100.00;99783.95;101102;1333;23097;-33
2022/10/23 08:51:52;;;;;;;8.60;6.70;;;;;;;13.80;100.00;99788.02;101215;1331;23930;-36
2022/10/23 08:54:20;;;;;;;5.10;4.50;;;;;;;14.01;100.00;99776.01;101279;1332;22885;-33
2022/10/23 08:56:48;;;;;;;10.50;5.50;;;;;;;14.15;100.00;99756.66;101183;1332;23096;-36
2022/10/23 08:59:21;;;;;;;5.70;4.20;;;;;;;14.38;100.00;99763.10;101142;1327;22891;-36
2022/10/23 09:01:51;;;;;;;5.80;3.70;;;;;;;14.61;100.00;99769.28;101098;1327;24330;-35
2022/10/23 09:04:17;;;;;;;2.90;2.60;;;;;;;14.80;100.00;99753.18;101188;1332;22732;-34
2022/10/23 09:06:46;;;;;;;7.80;6.00;;;;;;;14.95;100.00;99757.30;101169;1332;23081;-36
2022/10/23 09:09:15;;;;;;;7.50;5.20;;;;;;;15.22;100.00;99750.95;101197;1332;24440;-34
2022/10/23 09:11:47;;;;;;;10.30;4.60;;;;;;;15.58;100.00;99749.87;101231;1332;22500;-34
2022/10/23 09:14:16;;;;;;;;;;;;;;;15.83;100.00;99742.20;101284;1327;22876;-36
2022/10/23 09:16:48;;;;;;;8.20;4.40;;;;;;;15.98;100.00;99735.73;101268;1332;22807;-34
2022/10/23 09:19:16;;;;;;;5.40;3.40;;;;;;;16.31;100.00;99733.60;101253;1332;22872;-36
2022/10/23 09:21:44;;;;;;;4.60;2.30;;;;;;;16.66;100.00;99733.46;101180;1332;24425;-34
2022/10/23 09:24:13;;;;;;;5.10;3.50;;;;;;;16.94;100.00;99724.62;101209;1327;23246;-34
2022/10/23 09:26:41;;;;;;;6.00;2.90;;;;;;;17.08;99.19;99720.86;101186;1327;23182;-34
2022/10/23 09:29:16;;;;;;;3.30;2.50;;;;;;;16.94;98.24;99720.98;101199;1322;23243;-37
2022/10/23 09:31:47;;;;;;;4.80;3.20;;;;;;;17.22;96.03;99723.08;101182;1325;23891;-35
2022/10/23 09:34:18;;;;;;;6.00;2.70;;;;;;;17.26;95.18;99731.16;101269;1324;26667;-37
2022/10/23 09:36:48;;;;;;;3.60;2.00;;;;;;;17.16;93.61;99731.05;101263;1327;24315;-34
2022/10/23 09:39:22;;;;;;;2.00;1.40;;;;;;;17.20;90.87;99732.80;101003;1332;25611;-37
2022/10/23 09:41:47;;;;;;;2.50;1.60;;;;;;;17.39;89.46;99735.72;101216;1332;22563;-37
2022/10/23 09:44:30;;;;;;;1.30;0.90;;;;;;;17.50;88.74;99733.00;101145;1332;22494;-37
2022/10/23 09:47:00;;;;;;;1.10;1.00;;;;;;;17.77;88.18;99731.77;101102;1317;22752;-35
2022/10/23 09:49:27;;;;;;;3.70;2.60;;;;;;;17.98;85.62;99736.95;101198;1324;22741;-37
2022/10/23 09:52:00;;;;;;;2.20;1.10;;;;;;;17.93;85.47;99736.73;101227;1324;23104;-37
2022/10/23 09:54:26;;;;;;;1.60;1.10;;;;;;;18.34;86.95;99735.35;101299;1331;25229;-37
2022/10/23 09:56:53;;;;;;;4.90;1.70;;;;;;;18.82;81.65;99734.86;101290;1331;22744;-36
2022/10/23 09:59:21;;;;;;;1.40;0.70;;;;;;;18.69;80.29;99734.89;101244;1331;24224;-36
2022/10/23 10:01:49;;;;;;;1.80;1.10;;;;;;;18.26;78.87;99734.33;101128;1332;25553;-35
2022/10/23 10:04:14;;;;;;;1.80;1.50;;;;;;;18.15;80.34;99732.29;101255;1330;23229;-36
2022/10/23 10:06:40;;;;;;;5.50;2.00;;;;;;;18.28;79.77;99727.34;101186;1320;23011;-35
2022/10/23 10:09:11;;;;;;;3.00;1.90;;;;;;;18.85;78.92;99722.54;101160;1332;22962;-37
2022/10/23 10:11:43;;;;;;;3.20;1.90;;;;;;;19.29;74.16;99712.09;101173;1324;23115;-37
2022/10/23 10:14:12;;;;;;;4.50;2.40;;;;;;;18.84;76.06;99712.56;101240;1332;22780;-37
2022/10/23 10:16:47;;;;;;;2.10;1.80;;;;;;;18.83;76.95;99715.00;101197;1332;23189;-37
2022/10/23 10:19:16;;;;;;;3.00;1.60;;;;;;;18.57;76.90;99710.11;101300;1329;24346;-35
2022/10/23 10:21:48;;;;;;;2.90;2.10;;;;;;;19.14;74.73;99702.23;101123;1327;23224;-37
2022/10/23 10:24:18;;;;;;;7.80;1.30;;;;;;;19.03;77.34;99699.38;101157;1319;23095;-35
2022/10/23 10:27:08;;;;;;;1.00;0.50;;;;;;;19.39;74.99;99694.27;101195;1324;22506;-35
2022/10/23 10:29:58;;;;;;;5.10;1.90;;;;;;;19.22;72.60;99696.27;101190;1332;24287;-37
2022/10/23 10:32:34;;;;;;;3.60;1.60;;;;;;;19.43;72.39;99695.59;101168;1332;22603;-37
2022/10/23 10:35:04;;;;;;;3.70;1.20;;;;;;;19.59;72.40;99690.20;101211;1331;26622;-35
2022/10/23 10:37:37;;;;;;;13.40;1.80;;;;;;;19.97;71.20;99686.58;101247;1332;24365;-37
2022/10/23 10:40:09;;;;;;;5.50;1.80;;;;;;;19.92;71.15;99684.70;101252;1331;25458;-36
2022/10/23 10:42:54;;;;;;;1.40;1.10;;;;;;;20.01;66.74;99683.96;101256;1332;22507;-37
2022/10/23 10:45:24;;;;;;;4.40;1.30;;;;;;;20.09;66.04;99685.22;101203;1323;22732;-37
2022/10/23 10:48:13;;;;;;;3.60;2.10;;;;;;;19.71;67.94;99681.73;101257;1332;22706;-34
2022/10/23 10:50:43;;;;;;;2.80;1.90;;;;;;;19.61;70.35;99677.03;101234;1332;23054;-35
2022/10/23 10:53:16;;;;;;;2.90;1.60;;;;;;;19.67;69.95;99673.21;101179;1323;23105;-34
2022/10/23 10:55:42;;;;;;;1.60;1.00;;;;;;;19.84;66.56;99670.70;101124;1332;26474;-35
2022/10/23 10:58:15;;;;;;;2.50;1.70;;;;;;;19.52;65.51;99676.46;101189;1327;22737;-36
2022/10/23 11:00:40;;;;;;;3.00;1.60;;;;;;;19.07;68.54;99670.48;101148;1332;24718;-36
2022/10/23 11:03:13;;;;;;;3.10;1.10;;;;;;;19.32;69.37;99666.27;101067;1326;22739;-33
2022/10/23 11:05:41;;;;;;;2.40;1.70;;;;;;;19.80;68.07;99658.53;101254;1332;25355;-37
2022/10/23 11:08:12;;;;;;;2.40;1.80;;;;;;;20.16;66.67;99654.72;101203;1332;25947;-37
2022/10/23 11:10:40;;;;;;;2.70;1.10;;;;;;;20.37;65.80;99651.65;101137;1332;26497;-37
2022/10/23 11:13:17;;;;;;;3.50;1.30;;;;;;;20.53;62.84;99645.73;101235;1316;25758;-35
2022/10/23 11:15:43;;;;;;;4.50;2.00;;;;;;;20.37;63.72;99647.29;101159;1332;22916;-37